San Francisco International Airport
KSFO : now visible

Airfield :











YOU CAN JOIN US ON...

 
LOGIN :

Register | Disclaimer

   EN    FR    IT 

 









Legend :    VFR   Marginal VFR   IFR   Intensive IFR   Very Intensive IFR
Visi :
Ceiling :
>= 8 km
>= 3000ft
5 to 8 km
1000 to 3000 ft
1500m to 5 km
500 to 1000 ft
800 to 1500m
200 to 500 ft
< 800m
< 200 ft
Symbols :   Thunderstorms  Fog  Heavy snow  Heavy precipitations  Wind > 20 kt







- Airport Elevation : 13 ft
- IATA code : SFO


KSFO - San Francisco International

CURRENT METAR :
  • 190856Z 20006KT 10SM FEW009 SCT018 17/12 A2993 RMK AO2 SLP135 T01720122 50005

EXPIRED METARs :
  • 190756Z 19007KT 10SM FEW009 SCT018 17/12 A2993 RMK AO2 SLP136 T01720122 402390161
  • 190656Z 21006KT 10SM FEW009 FEW015 17/12 A2993 RMK AO2 SLP135 T01670122

TAF KSFO
Valid from the 19 at 09:00 until the 20 at 12:00 UTC


190901Z 1909/2012 20008KT P6SM FEW012
FM191100 21008KT P6SM BKN015
FM191700 21006KT P6SM SCT015
FM192000 26012KT P6SM FEW015
FM200400 27006KT P6SM FEW015
No reported NOTAMs for that airfield.



MET'MAP, your aeronautical weather chart ! - Copyright ORBIFLY December 2007 - Disclaimer

ORBIFLY MET'MAP TEAM :

Programming & Development : Alexandra Zaïnal
Concept & Development : Baudouin d'Aumeries
Co-Development & Prog : Marc-Olivier Méhu
Technical & hardware support : Manuel Goepfert

Contact : metmap@orbifly.com




SOURCES & CREDITS :

   NOAA       Earth
Advisory